createdAt,value
2022-09-21T00:01:20.258Z,97740.09
2022-09-21T00:03:48.793Z,97751.84
2022-09-21T00:06:18.772Z,97741.69
2022-09-21T00:08:48.901Z,97741.94
2022-09-21T00:11:18.388Z,97749.16
2022-09-21T00:13:46.974Z,97743.03
2022-09-21T00:16:17.105Z,97752.34
2022-09-21T00:18:45.238Z,97743.53
2022-09-21T00:21:14.927Z,97746.19
2022-09-21T00:23:43.577Z,97742.09
2022-09-21T00:26:15.183Z,97753.84
2022-09-21T00:28:44.577Z,97743.13
2022-09-21T00:31:15.009Z,97747.31
2022-09-21T00:33:43.990Z,97747.31
2022-09-21T00:36:13.887Z,97741.94
2022-09-21T00:38:41.907Z,97750.50
2022-09-21T00:41:12.323Z,97748.34
2022-09-21T00:43:43.465Z,97750.72
2022-09-21T00:46:17.047Z,97743.75
2022-09-21T00:48:46.953Z,97747.50
2022-09-21T00:51:15.098Z,97751.22
2022-09-21T00:53:43.113Z,97747.22
2022-09-21T00:56:13.399Z,97753.03
2022-09-21T00:58:45.265Z,97746.88
2022-09-21T01:01:18.718Z,97754.09
2022-09-21T01:03:47.497Z,97752.41
2022-09-21T01:06:16.573Z,97756.13
2022-09-21T01:08:45.548Z,97752.84
2022-09-21T01:11:27.361Z,97748.34
2022-09-21T01:14:09.548Z,97758.81
2022-09-21T01:16:44.454Z,97749.72
2022-09-21T01:19:25.376Z,97749.16
2022-09-21T01:22:01.131Z,97751.84
2022-09-21T01:24:49.082Z,97750.28
2022-09-21T01:27:33.273Z,97754.50
2022-09-21T01:30:05.152Z,97749.69
2022-09-21T01:32:36.114Z,97749.09
2022-09-21T01:35:07.938Z,97746.88
2022-09-21T01:37:39.178Z,97749.03
2022-09-21T01:40:11.177Z,97752.22
2022-09-21T01:42:41.006Z,97755.47
2022-09-21T01:45:12.422Z,97759.72
2022-09-21T01:47:42.082Z,97754.84
2022-09-21T01:50:11.253Z,97755.38
2022-09-21T01:52:42.793Z,97761.25
2022-09-21T01:55:14.081Z,97757.00
2022-09-21T01:57:45.887Z,97754.06
2022-09-21T02:00:17.204Z,97756.41
2022-09-21T02:02:48.096Z,97757.66
2022-09-21T02:05:17.433Z,97756.81
2022-09-21T02:07:46.042Z,97753.56
2022-09-21T02:10:20.592Z,97759.44
2022-09-21T02:12:51.860Z,97760.22
2022-09-21T02:15:23.817Z,97759.44
2022-09-21T02:17:59.200Z,97765.25
2022-09-21T02:20:31.135Z,97765.88
2022-09-21T02:23:04.981Z,97766.38
2022-09-21T02:25:41.283Z,97769.31
2022-09-21T02:28:13.533Z,97768.78
2022-09-21T02:30:45.345Z,97764.88
2022-09-21T02:33:19.549Z,97766.78
2022-09-21T02:35:52.072Z,97771.03
2022-09-21T02:38:26.859Z,97768.84
2022-09-21T02:41:00.712Z,97762.25
2022-09-21T02:43:32.696Z,97765.44
2022-09-21T02:46:06.483Z,97765.69
2022-09-21T02:48:36.477Z,97771.03
2022-09-21T02:51:08.286Z,97765.63
2022-09-21T02:53:38.308Z,97763.59
2022-09-21T02:56:08.046Z,97768.66
2022-09-21T02:58:39.748Z,97767.06
2022-09-21T03:01:12.098Z,97774.00
2022-09-21T03:03:40.136Z,97769.53
2022-09-21T03:06:08.563Z,97767.88
2022-09-21T03:08:36.608Z,97762.00
2022-09-21T03:11:04.917Z,97764.66
2022-09-21T03:13:33.355Z,97765.84
2022-09-21T03:16:02.592Z,97762.66
2022-09-21T03:18:32.599Z,97770.19
2022-09-21T03:21:02.333Z,97764.78
2022-09-21T03:23:30.802Z,97770.41
2022-09-21T03:25:59.509Z,97760.06
2022-09-21T03:28:27.666Z,97769.13
2022-09-21T03:30:55.959Z,97770.66
2022-09-21T03:33:25.183Z,97763.91
2022-09-21T03:35:54.559Z,97769.16
2022-09-21T03:38:22.660Z,97770.16
2022-09-21T03:40:51.281Z,97773.38
2022-09-21T03:43:19.569Z,97770.16
2022-09-21T03:45:49.261Z,97768.38
2022-09-21T03:48:17.252Z,97775.63
2022-09-21T03:50:45.329Z,97774.50
2022-09-21T03:53:15.503Z,97771.28
2022-09-21T03:55:43.867Z,97776.09
2022-09-21T03:58:11.904Z,97771.53
2022-09-21T04:00:40.279Z,97774.69
2022-09-21T04:03:08.451Z,97786.94
2022-09-21T04:05:36.439Z,97781.94
2022-09-21T04:08:04.439Z,97780.25
2022-09-21T04:10:33.905Z,97783.91
2022-09-21T04:13:03.428Z,97774.88
2022-09-21T04:15:32.078Z,97781.31
2022-09-21T04:18:00.288Z,97783.41
2022-09-21T04:20:28.327Z,97783.91
2022-09-21T04:22:56.318Z,97785.78
2022-09-21T04:25:24.455Z,97782.78
2022-09-21T04:27:54.448Z,97786.72
2022-09-21T04:30:22.528Z,97784.06
2022-09-21T04:32:50.771Z,97789.09
2022-09-21T04:35:18.959Z,97791.09
2022-09-21T04:37:48.230Z,97790.22
2022-09-21T04:40:16.569Z,97800.56
2022-09-21T04:42:44.721Z,97794.75
2022-09-21T04:45:17.446Z,97789.50
2022-09-21T04:47:45.828Z,97795.13
2022-09-21T04:50:14.004Z,97795.63
2022-09-21T04:52:42.017Z,97798.13
2022-09-21T04:55:10.749Z,97801.28
2022-09-21T04:57:39.162Z,97810.81
2022-09-21T05:00:08.280Z,97805.47
2022-09-21T05:02:37.692Z,97809.78
2022-09-21T05:05:06.794Z,97814.47
2022-09-21T05:07:35.021Z,97822.69
2022-09-21T05:10:05.154Z,97828.34
2022-09-21T05:12:33.982Z,97829.56
2022-09-21T05:15:02.961Z,97834.81
2022-09-21T05:17:32.282Z,97836.75
2022-09-21T05:20:06.072Z,97833.34
2022-09-21T05:22:34.653Z,97838.59
2022-09-21T05:25:07.877Z,97842.22
2022-09-21T05:27:36.229Z,97839.34
2022-09-21T05:30:05.690Z,97849.19
2022-09-21T05:32:44.115Z,97844.31
2022-09-21T05:35:22.198Z,97852.88
2022-09-21T05:37:55.271Z,97857.41
2022-09-21T05:40:23.942Z,97853.56
2022-09-21T05:42:52.684Z,97867.69
2022-09-21T05:45:23.089Z,97849.84
2022-09-21T05:48:08.273Z,97861.28
2022-09-21T05:50:48.820Z,97864.06
2022-09-21T05:53:26.484Z,97863.41
2022-09-21T05:55:58.425Z,97866.31
2022-09-21T05:58:32.226Z,97866.06
2022-09-21T06:01:12.071Z,97863.78
2022-09-21T06:03:42.363Z,97874.00
2022-09-21T06:06:11.728Z,97875.69
2022-09-21T06:08:39.873Z,97873.50
2022-09-21T06:11:07.974Z,97869.31
2022-09-21T06:13:37.671Z,97868.06
2022-09-21T06:16:06.800Z,97868.16
2022-09-21T06:18:38.228Z,97871.56
2022-09-21T06:21:06.499Z,97871.09
2022-09-21T06:23:36.068Z,97868.88
2022-09-21T06:26:04.305Z,97860.97
2022-09-21T06:28:32.341Z,97876.50
2022-09-21T06:31:00.635Z,97866.47
2022-09-21T06:33:28.642Z,97865.44
2022-09-21T06:35:59.184Z,97865.16
2022-09-21T06:38:29.096Z,97871.53
2022-09-21T06:41:02.301Z,97876.34
2022-09-21T06:43:30.508Z,97870.50
2022-09-21T06:46:00.086Z,97877.81
2022-09-21T06:48:28.812Z,97884.59
2022-09-21T06:50:59.492Z,97878.09
2022-09-21T06:53:28.322Z,97882.47
2022-09-21T06:56:03.240Z,97874.59
2022-09-21T06:58:34.210Z,97879.22
2022-09-21T07:01:07.504Z,97885.16
2022-09-21T07:03:35.970Z,97880.97
2022-09-21T07:06:05.032Z,97881.28
2022-09-21T07:11:24.012Z,97883.59
2022-09-21T07:13:52.797Z,97896.44
2022-09-21T07:16:21.633Z,97885.56
2022-09-21T07:18:50.118Z,97897.69
2022-09-21T07:21:18.208Z,97890.78
2022-09-21T07:23:46.216Z,97896.22
2022-09-21T07:26:15.128Z,97898.41
2022-09-21T07:28:44.525Z,97893.09
2022-09-21T07:31:15.023Z,97886.50
2022-09-21T07:33:43.725Z,97894.81
2022-09-21T07:36:13.084Z,97891.69
2022-09-21T07:38:42.803Z,97893.13
2022-09-21T07:41:12.252Z,97893.41
2022-09-21T07:43:40.566Z,97894.03
2022-09-21T07:46:12.424Z,97897.28
2022-09-21T07:48:40.543Z,97901.59
2022-09-21T07:51:11.170Z,97903.81
2022-09-21T07:53:40.803Z,97903.34
2022-09-21T07:56:10.487Z,97899.09
2022-09-21T07:58:56.803Z,97904.00
2022-09-21T08:01:27.663Z,97912.06
2022-09-21T08:03:56.944Z,97912.09
2022-09-21T08:06:26.255Z,97911.91
2022-09-21T08:08:57.835Z,97896.69
2022-09-21T08:11:27.561Z,97905.56
2022-09-21T08:13:57.220Z,97898.63
2022-09-21T08:16:27.007Z,97900.03
2022-09-21T08:18:55.130Z,97907.03
2022-09-21T08:21:23.311Z,97902.78
2022-09-21T08:23:51.326Z,97906.56
2022-09-21T08:26:21.324Z,97912.56
2022-09-21T08:28:51.513Z,97905.91
2022-09-21T08:31:23.165Z,97914.25
2022-09-21T08:33:53.385Z,97912.19
2022-09-21T08:36:21.526Z,97912.75
2022-09-21T08:39:14.183Z,97907.44
2022-09-21T08:41:53.880Z,97910.13
2022-09-21T08:44:25.405Z,97912.91
2022-09-21T08:47:02.597Z,97911.06
2022-09-21T08:49:32.762Z,97911.56
2022-09-21T08:52:02.962Z,97908.13
2022-09-21T08:54:36.308Z,97911.09
2022-09-21T08:57:05.993Z,97915.69
2022-09-21T08:59:35.203Z,97912.22
2022-09-21T09:02:14.787Z,97906.34
2022-09-21T09:04:51.477Z,97899.66
2022-09-21T09:07:41.315Z,97901.81
2022-09-21T09:10:19.327Z,97901.28
2022-09-21T09:12:57.036Z,97892.16
2022-09-21T09:15:39.393Z,97899.66
2022-09-21T09:18:11.568Z,97892.16
2022-09-21T09:20:43.245Z,97892.69
2022-09-21T09:23:14.415Z,97893.22
2022-09-21T09:25:43.988Z,97890.00
2022-09-21T09:28:19.073Z,97884.09
2022-09-21T09:30:47.290Z,97884.88
2022-09-21T09:33:20.571Z,97874.91
2022-09-21T09:35:52.271Z,97877.03
2022-09-21T09:38:22.911Z,97874.31
2022-09-21T09:41:01.826Z,97868.38
2022-09-21T09:43:39.638Z,97864.03
2022-09-21T09:46:13.648Z,97870.47
2022-09-21T09:48:54.511Z,97869.88
2022-09-21T09:51:23.956Z,97869.56
2022-09-21T09:53:52.482Z,97864.66
2022-09-21T09:56:20.480Z,97866.47
2022-09-21T09:58:52.545Z,97862.66
2022-09-21T10:01:42.750Z,97858.31
2022-09-21T10:04:13.110Z,97863.09
2022-09-21T10:06:46.462Z,97853.69
2022-09-21T10:09:25.442Z,97848.47
2022-09-21T10:11:54.248Z,97847.38
2022-09-21T10:14:23.651Z,97847.91
2022-09-21T10:16:53.074Z,97851.56
2022-09-21T10:19:23.283Z,97850.44
2022-09-21T10:21:57.475Z,97848.00
2022-09-21T10:24:27.027Z,97847.75
2022-09-21T10:26:56.868Z,97843.38
2022-09-21T10:29:33.595Z,97840.97
2022-09-21T10:32:04.022Z,97846.72
2022-09-21T10:34:33.226Z,97838.97
2022-09-21T10:37:04.303Z,97842.66
2022-09-21T10:39:32.789Z,97835.75
2022-09-21T10:42:03.275Z,97826.84
2022-09-21T10:44:39.321Z,97822.69
2022-09-21T10:47:21.282Z,97825.53
2022-09-21T10:49:51.699Z,97824.44
2022-09-21T10:52:22.853Z,97822.78
2022-09-21T10:54:52.739Z,97820.72
2022-09-21T10:57:23.341Z,97820.59
2022-09-21T10:59:51.737Z,97818.56
2022-09-21T11:02:29.729Z,97823.13
2022-09-21T11:05:00.499Z,97820.91
2022-09-21T11:07:33.152Z,97819.91
2022-09-21T11:10:06.220Z,97821.66
2022-09-21T11:12:46.435Z,97826.63
2022-09-21T11:15:21.947Z,97816.34
2022-09-21T11:17:54.937Z,97821.09
2022-09-21T11:20:28.080Z,97813.00
2022-09-21T11:23:02.374Z,97825.38
2022-09-21T11:25:36.711Z,97815.41
2022-09-21T11:28:13.380Z,97813.34
2022-09-21T11:30:50.592Z,97811.22
2022-09-21T11:33:35.145Z,97809.56
2022-09-21T11:36:09.640Z,97806.25
2022-09-21T11:38:51.656Z,97801.84
2022-09-21T11:41:31.349Z,97796.31
2022-09-21T11:44:12.598Z,97801.63
2022-09-21T11:46:47.764Z,97787.72
2022-09-21T11:49:32.366Z,97796.53
2022-09-21T11:52:14.906Z,97796.53
2022-09-21T11:54:57.602Z,97789.56
2022-09-21T11:57:28.637Z,97791.09
2022-09-21T12:00:06.689Z,97789.78
2022-09-21T12:03:09.537Z,97789.16
2022-09-21T12:05:41.343Z,97778.25
2022-09-21T12:08:25.805Z,97783.00
2022-09-21T12:11:03.185Z,97784.09
2022-09-21T12:13:37.221Z,97773.19
2022-09-21T12:16:11.648Z,97781.22
2022-09-21T12:18:45.435Z,97770.44
2022-09-21T12:21:18.210Z,97782.47
2022-09-21T12:23:50.573Z,97772.94
2022-09-21T12:26:21.918Z,97774.94
2022-09-21T12:28:53.055Z,97775.56
2022-09-21T12:31:27.578Z,97774.66
2022-09-21T12:33:58.238Z,97766.28
2022-09-21T12:36:29.409Z,97767.66
2022-09-21T12:39:02.940Z,97764.69
2022-09-21T12:41:37.795Z,97754.47
2022-09-21T12:44:16.684Z,97763.66
2022-09-21T12:46:48.821Z,97766.88
2022-09-21T12:49:21.550Z,97758.78
2022-09-21T12:51:54.553Z,97764.50
2022-09-21T12:54:29.104Z,97757.97
2022-09-21T12:57:23.544Z,97755.22
2022-09-21T13:00:00.969Z,97750.19
2022-09-21T13:02:55.780Z,97755.50
2022-09-21T13:05:34.724Z,97756.88
2022-09-21T13:08:07.487Z,97751.69
2022-09-21T13:10:45.940Z,97746.47
2022-09-21T13:13:25.702Z,97747.69
2022-09-21T13:15:54.018Z,97753.09
2022-09-21T13:18:25.791Z,97753.91
2022-09-21T13:21:19.431Z,97739.34
2022-09-21T13:23:53.242Z,97744.47
2022-09-21T13:26:35.809Z,97742.66
2022-09-21T13:29:27.915Z,97741.25
2022-09-21T13:31:58.887Z,97737.94
2022-09-21T13:34:29.605Z,97733.09
2022-09-21T13:37:27.646Z,97738.97
2022-09-21T13:40:41.330Z,97735.44
2022-09-21T13:43:23.643Z,97717.50
2022-09-21T13:45:58.171Z,97727.72
2022-09-21T13:48:29.506Z,97724.94
2022-09-21T13:50:59.646Z,97715.41
2022-09-21T13:53:33.375Z,97720.00
2022-09-21T13:56:03.275Z,97721.44
2022-09-21T13:58:34.911Z,97719.94
2022-09-21T14:01:09.951Z,97716.72
2022-09-21T14:03:50.370Z,97717.84
2022-09-21T14:06:20.463Z,97718.50
2022-09-21T14:08:51.770Z,97719.47
2022-09-21T14:11:25.099Z,97714.47
2022-09-21T14:14:04.847Z,97711.84
2022-09-21T14:16:58.016Z,97715.72
2022-09-21T14:20:08.872Z,97718.13
2022-09-21T14:22:41.618Z,97710.69
2022-09-21T14:25:51.086Z,97709.66
2022-09-21T14:28:22.498Z,97716.94
2022-09-21T14:30:55.737Z,97710.47
2022-09-21T14:33:29.374Z,97708.66
2022-09-21T14:35:57.833Z,97713.94
2022-09-21T14:38:28.313Z,97715.94
2022-09-21T14:41:00.150Z,97717.41
2022-09-21T14:43:35.207Z,97712.03
2022-09-21T14:46:17.087Z,97708.53
2022-09-21T14:48:55.227Z,97705.06
2022-09-21T14:51:31.406Z,97710.22
2022-09-21T14:54:18.391Z,97711.66
2022-09-21T14:56:55.549Z,97704.50
2022-09-21T14:59:38.734Z,97708.38
2022-09-21T15:02:18.044Z,97703.16
2022-09-21T15:05:00.896Z,97686.38
2022-09-21T15:07:59.903Z,97700.47
2022-09-21T15:10:54.451Z,97693.13
2022-09-21T15:13:38.715Z,97694.72
2022-09-21T15:16:20.239Z,97698.25
2022-09-21T15:18:50.561Z,97686.41
2022-09-21T15:21:26.666Z,97685.13
2022-09-21T15:23:54.996Z,97685.97
2022-09-21T15:26:29.233Z,97683.38
2022-09-21T15:29:15.682Z,97684.00
2022-09-21T15:31:43.802Z,97674.94
2022-09-21T15:34:13.799Z,97679.84
2022-09-21T15:36:44.193Z,97676.03
2022-09-21T15:39:23.303Z,97682.22
2022-09-21T15:41:57.799Z,97678.16
2022-09-21T15:44:27.699Z,97680.63
2022-09-21T15:47:00.937Z,97674.53
2022-09-21T15:49:30.263Z,97678.28
2022-09-21T15:52:01.401Z,97676.00
2022-09-21T15:54:32.953Z,97682.63
2022-09-21T15:57:04.741Z,97680.06
2022-09-21T15:59:36.187Z,97681.75
2022-09-21T16:02:12.874Z,97686.00
2022-09-21T16:04:49.370Z,97682.06
2022-09-21T16:07:28.365Z,97677.50
2022-09-21T16:09:56.398Z,97683.72
2022-09-21T16:12:40.841Z,97685.50
2022-09-21T16:15:16.459Z,97691.53
2022-09-21T16:18:02.912Z,97681.63
2022-09-21T16:20:43.310Z,97694.97
2022-09-21T16:23:17.830Z,97692.03
2022-09-21T16:25:47.010Z,97690.06
2022-09-21T16:28:36.694Z,97686.34
2022-09-21T16:31:32.055Z,97689.94
2022-09-21T16:34:04.822Z,97685.75
2022-09-21T16:36:44.910Z,97685.41
2022-09-21T16:39:16.552Z,97687.06
2022-09-21T16:41:48.376Z,97687.13
2022-09-21T16:44:20.834Z,97690.94
2022-09-21T16:46:51.974Z,97691.75
2022-09-21T16:49:22.047Z,97684.13
2022-09-21T16:51:51.131Z,97696.16
2022-09-21T16:54:25.317Z,97690.06
2022-09-21T16:56:55.164Z,97692.56
2022-09-21T16:59:23.405Z,97695.28
2022-09-21T17:01:56.341Z,97692.97
2022-09-21T17:04:26.224Z,97689.50
2022-09-21T17:06:55.168Z,97696.13
2022-09-21T17:09:29.781Z,97705.59
2022-09-21T17:12:01.312Z,97698.81
2022-09-21T17:14:35.202Z,97701.03
2022-09-21T17:17:05.766Z,97700.41
2022-09-21T17:19:34.829Z,97702.91
2022-09-21T17:22:04.377Z,97696.19
2022-09-21T17:24:49.811Z,97703.13
2022-09-21T17:27:19.755Z,97695.03
2022-09-21T17:29:49.296Z,97701.91
2022-09-21T17:32:20.374Z,97699.31
2022-09-21T17:34:55.353Z,97701.69
2022-09-21T17:37:25.153Z,97696.38
2022-09-21T17:39:54.678Z,97701.47
2022-09-21T17:42:25.170Z,97699.16
2022-09-21T17:45:12.459Z,97711.53
2022-09-21T17:47:41.358Z,97704.91
2022-09-21T17:50:23.076Z,97707.19
2022-09-21T17:53:08.449Z,97713.25
2022-09-21T17:55:39.094Z,97714.78
2022-09-21T17:58:16.179Z,97726.75
2022-09-21T18:00:51.212Z,97722.13
2022-09-21T18:03:22.408Z,97723.63
2022-09-21T18:05:52.776Z,97725.81
2022-09-21T18:08:21.262Z,97726.97
2022-09-21T18:11:00.098Z,97736.22
2022-09-21T18:13:38.253Z,97738.00
2022-09-21T18:16:19.939Z,97731.56
2022-09-21T18:18:53.663Z,97727.09
2022-09-21T18:21:24.752Z,97731.03
2022-09-21T18:24:10.465Z,97735.16
2022-09-21T18:26:40.363Z,97733.63
2022-09-21T18:29:38.919Z,97726.47
2022-09-21T18:32:20.813Z,97733.81
2022-09-21T18:35:16.975Z,97742.53
2022-09-21T18:37:55.158Z,97742.31
2022-09-21T18:40:27.932Z,97732.97
2022-09-21T18:43:01.370Z,97738.91
2022-09-21T18:45:31.905Z,97746.97
2022-09-21T18:48:21.463Z,97744.34
2022-09-21T18:50:56.661Z,97744.13
2022-09-21T18:53:29.861Z,97743.88
2022-09-21T18:55:58.449Z,97749.31
2022-09-21T18:58:30.116Z,97747.75
2022-09-21T19:00:58.792Z,97754.50
2022-09-21T19:03:28.140Z,97746.16
2022-09-21T19:06:07.963Z,97747.81
2022-09-21T19:08:40.233Z,97747.88
2022-09-21T19:11:12.599Z,97740.13
2022-09-21T19:13:48.427Z,97745.28
2022-09-21T19:16:24.377Z,97745.84
2022-09-21T19:19:01.696Z,97742.63
2022-09-21T19:21:36.588Z,97743.19
2022-09-21T19:24:11.865Z,97739.75
2022-09-21T19:26:46.746Z,97742.22
2022-09-21T19:29:28.095Z,97738.22
2022-09-21T19:31:56.349Z,97741.19
2022-09-21T19:34:24.648Z,97741.75
2022-09-21T19:36:52.799Z,97740.97
2022-09-21T19:39:21.374Z,97744.19
2022-09-21T19:41:57.298Z,97743.44
2022-09-21T19:44:41.757Z,97741.81
2022-09-21T19:47:16.666Z,97744.00
2022-09-21T19:49:50.419Z,97745.34
2022-09-21T19:52:19.692Z,97744.59
2022-09-21T19:55:05.959Z,97746.19
2022-09-21T19:57:52.887Z,97749.19
2022-09-21T20:00:24.090Z,97746.78
2022-09-21T20:03:03.364Z,97756.50
2022-09-21T20:05:38.422Z,97756.22
2022-09-21T20:08:12.543Z,97746.84
2022-09-21T20:11:10.105Z,97748.19
2022-09-21T20:13:48.637Z,97745.00
2022-09-21T20:16:31.270Z,97741.50
2022-09-21T20:19:03.435Z,97736.94
2022-09-21T20:21:40.584Z,97742.91
2022-09-21T20:24:19.862Z,97731.88
2022-09-21T20:26:49.623Z,97735.94
2022-09-21T20:29:18.280Z,97736.22
2022-09-21T20:31:48.638Z,97731.91
2022-09-21T20:34:16.778Z,97739.44
2022-09-21T20:36:44.775Z,97730.84
2022-09-21T20:39:12.779Z,97743.25
2022-09-21T20:41:40.794Z,97735.22
2022-09-21T20:44:12.127Z,97741.13
2022-09-21T20:46:40.098Z,97743.84
2022-09-21T20:49:09.463Z,97744.38
2022-09-21T20:51:37.605Z,97749.75
2022-09-21T20:54:06.220Z,97747.88
2022-09-21T20:56:34.327Z,97748.19
2022-09-21T20:59:02.387Z,97746.56
2022-09-21T21:01:30.581Z,97751.94
2022-09-21T21:04:01.823Z,97750.66
2022-09-21T21:06:32.611Z,97750.91
2022-09-21T21:09:00.994Z,97751.44
2022-09-21T21:11:29.028Z,97749.34
2022-09-21T21:13:57.284Z,97750.69
2022-09-21T21:16:25.582Z,97758.19
2022-09-21T21:18:53.630Z,97752.03
2022-09-21T21:21:21.603Z,97747.75
2022-09-21T21:24:09.417Z,97747.22
2022-09-21T21:27:01.177Z,97749.66
2022-09-21T21:29:25.647Z,97746.72
2022-09-21T21:31:53.656Z,97747.22
2022-09-21T21:34:23.135Z,97748.84
2022-09-21T21:36:51.081Z,97745.94
2022-09-21T21:39:20.461Z,97741.34
2022-09-21T21:41:48.578Z,97743.50
2022-09-21T21:44:16.755Z,97747.28
2022-09-21T21:46:44.797Z,97745.69
2022-09-21T21:49:13.289Z,97740.84
2022-09-21T21:51:41.457Z,97742.44
2022-09-21T21:54:09.542Z,97744.59
2022-09-21T21:56:38.905Z,97741.38
2022-09-21T21:59:06.976Z,97744.34
2022-09-21T22:01:35.086Z,97748.88
2022-09-21T22:04:03.676Z,97739.78
2022-09-21T22:06:33.416Z,97741.13
2022-09-21T22:09:01.730Z,97742.44
2022-09-21T22:11:30.950Z,97751.59
2022-09-21T22:14:01.100Z,97743.25
2022-09-21T22:16:31.392Z,97744.59
2022-09-21T22:19:00.102Z,97738.19
2022-09-21T22:21:29.291Z,97747.28
2022-09-21T22:23:58.868Z,97743.25
2022-09-21T22:26:27.925Z,97740.56
2022-09-21T22:28:57.938Z,97729.84
2022-09-21T22:31:29.344Z,97730.91
2022-09-21T22:33:57.554Z,97729.03
2022-09-21T22:36:30.722Z,97727.13
2022-09-21T22:38:59.431Z,97722.59
2022-09-21T22:41:29.898Z,97724.47
2022-09-21T22:43:59.345Z,97725.28
2022-09-21T22:46:29.976Z,97724.19
2022-09-21T22:48:58.203Z,97719.09
2022-09-21T22:51:26.220Z,97732.22
2022-09-21T22:53:54.223Z,97723.09
2022-09-21T22:56:23.279Z,97729.00
2022-09-21T22:58:53.322Z,97726.81
2022-09-21T23:01:25.486Z,97734.03
2022-09-21T23:03:57.326Z,97729.47
2022-09-21T23:06:29.475Z,97725.75
2022-09-21T23:08:59.160Z,97721.69
2022-09-21T23:11:28.818Z,97724.09
2022-09-21T23:13:57.869Z,97717.09
2022-09-21T23:16:27.340Z,97717.59
2022-09-21T23:18:57.818Z,97709.00
2022-09-21T23:21:27.583Z,97713.78
2022-09-21T23:23:56.742Z,97705.22
2022-09-21T23:26:26.154Z,97706.28
2022-09-21T23:28:55.515Z,97707.31
2022-09-21T23:31:24.382Z,97713.47
2022-09-21T23:33:53.813Z,97713.47
2022-09-21T23:36:26.039Z,97710.78
2022-09-21T23:38:54.275Z,97700.38
2022-09-21T23:41:24.305Z,97701.44
2022-09-21T23:43:52.802Z,97699.84
2022-09-21T23:46:22.471Z,97693.97
2022-09-21T23:48:50.689Z,97708.13
2022-09-21T23:51:19.216Z,97711.59
2022-09-21T23:53:48.805Z,97707.00
2022-09-21T23:56:18.244Z,97701.44
2022-09-21T23:58:46.613Z,97708.91
